createdAt,value
2023-05-17T00:00:00.101Z,0.00
2023-05-17T00:01:00.298Z,0.00
2023-05-17T00:01:59.991Z,0.00
2023-05-17T00:03:00.220Z,0.00
2023-05-17T00:03:59.909Z,0.00
2023-05-17T00:05:00.173Z,0.00
2023-05-17T00:05:59.851Z,0.00
2023-05-17T00:06:59.926Z,0.00
2023-05-17T00:07:59.728Z,0.00
2023-05-17T00:08:59.702Z,0.00
2023-05-17T00:09:59.752Z,0.00
2023-05-17T00:10:59.588Z,0.00
2023-05-17T00:11:59.759Z,0.00
2023-05-17T00:12:59.622Z,0.00
2023-05-17T00:13:59.581Z,0.00
2023-05-17T00:14:59.404Z,0.00
2023-05-17T00:15:59.586Z,0.00
2023-05-17T00:16:59.329Z,0.00
2023-05-17T00:17:59.468Z,0.00
2023-05-17T00:18:59.355Z,0.00
2023-05-17T00:19:59.452Z,0.00
2023-05-17T00:20:59.148Z,0.00
2023-05-17T00:21:59.221Z,0.00
2023-05-17T00:22:59.055Z,0.00
2023-05-17T00:23:59.231Z,0.00
2023-05-17T00:24:58.975Z,0.00
2023-05-17T00:25:58.920Z,0.00
2023-05-17T00:26:58.892Z,0.00
2023-05-17T00:27:59.059Z,0.00
2023-05-17T00:28:58.859Z,0.00
2023-05-17T00:29:58.870Z,0.00
2023-05-17T00:30:58.921Z,0.00
2023-05-17T00:31:58.651Z,0.00
2023-05-17T00:32:58.762Z,0.00
2023-05-17T00:33:58.594Z,0.00
2023-05-17T00:34:58.776Z,0.00
2023-05-17T00:35:58.537Z,0.00
2023-05-17T00:36:58.508Z,0.00
2023-05-17T00:37:58.377Z,0.00
2023-05-17T00:38:58.521Z,0.00
2023-05-17T00:39:58.294Z,0.00
2023-05-17T00:40:58.347Z,0.00
2023-05-17T00:41:58.400Z,0.00
2023-05-17T00:42:58.163Z,0.00
2023-05-17T00:43:58.105Z,0.00
2023-05-17T00:44:58.158Z,0.00
2023-05-17T00:45:58.022Z,0.00
2023-05-17T00:46:58.171Z,0.00
2023-05-17T00:47:58.120Z,0.00
2023-05-17T00:48:57.881Z,0.00
2023-05-17T00:49:57.886Z,0.00
2023-05-17T00:50:57.994Z,0.00
2023-05-17T00:51:57.753Z,0.00
2023-05-17T00:52:58.019Z,0.00
2023-05-17T00:53:57.665Z,0.00
2023-05-17T00:54:57.616Z,0.00
2023-05-17T00:55:57.834Z,0.00
2023-05-17T00:56:57.516Z,0.00
2023-05-17T00:57:57.638Z,0.00
2023-05-17T00:58:57.496Z,0.00
2023-05-17T00:59:57.655Z,0.00
2023-05-17T01:00:57.337Z,0.00
2023-05-17T01:01:57.465Z,0.00
2023-05-17T01:02:57.308Z,0.00
2023-05-17T01:03:57.597Z,0.00
2023-05-17T01:04:57.417Z,0.00
2023-05-17T01:05:57.297Z,0.00
2023-05-17T01:06:57.078Z,0.00
2023-05-17T01:07:57.305Z,0.00
2023-05-17T01:08:57.029Z,0.00
2023-05-17T01:09:57.111Z,0.00
2023-05-17T01:10:56.897Z,0.00
2023-05-17T01:11:56.991Z,0.00
2023-05-17T01:12:56.799Z,0.00
2023-05-17T01:13:57.975Z,0.00
2023-05-17T01:14:56.705Z,0.00
2023-05-17T01:15:56.949Z,0.00
2023-05-17T01:16:56.622Z,0.00
2023-05-17T01:17:56.667Z,0.00
2023-05-17T01:18:56.656Z,0.00
2023-05-17T01:19:56.993Z,0.00
2023-05-17T01:20:56.437Z,0.00
2023-05-17T01:21:56.788Z,0.00
2023-05-17T01:22:56.340Z,0.00
2023-05-17T01:23:56.312Z,0.00
2023-05-17T01:24:56.255Z,0.00
2023-05-17T01:25:56.430Z,0.00
2023-05-17T01:26:56.192Z,0.00
2023-05-17T01:27:56.427Z,0.00
2023-05-17T01:28:56.075Z,0.00
2023-05-17T01:29:56.031Z,0.00
2023-05-17T01:30:56.244Z,0.00
2023-05-17T01:31:55.937Z,0.00
2023-05-17T01:32:56.141Z,0.00
2023-05-17T01:33:56.196Z,0.00
2023-05-17T01:34:55.803Z,0.00
2023-05-17T01:35:55.763Z,0.00
2023-05-17T01:36:55.881Z,0.00
2023-05-17T01:37:55.692Z,0.00
2023-05-17T01:38:55.901Z,0.00
2023-05-17T01:39:55.596Z,0.00
2023-05-17T01:40:55.545Z,0.00
2023-05-17T01:41:55.495Z,0.00
2023-05-17T01:42:55.752Z,0.00
2023-05-17T01:43:55.587Z,0.00
2023-05-17T01:44:55.524Z,0.00
2023-05-17T01:45:55.322Z,0.00
2023-05-17T01:46:55.260Z,0.00
2023-05-17T01:47:55.401Z,0.00
2023-05-17T01:48:55.293Z,0.00
2023-05-17T01:49:55.398Z,0.00
2023-05-17T01:50:55.083Z,0.00
2023-05-17T01:51:55.169Z,0.00
2023-05-17T01:52:54.991Z,0.00
2023-05-17T01:53:55.191Z,0.00
2023-05-17T01:54:55.271Z,0.00
2023-05-17T01:55:54.998Z,0.00
2023-05-17T01:56:54.819Z,0.00
2023-05-17T01:57:55.013Z,0.00
2023-05-17T01:58:54.738Z,0.00
2023-05-17T01:59:54.823Z,0.00
2023-05-17T02:00:54.671Z,0.00
2023-05-17T02:01:54.841Z,0.00
2023-05-17T02:02:54.590Z,0.00
2023-05-17T02:03:54.559Z,0.00
2023-05-17T02:04:54.525Z,0.00
2023-05-17T02:05:54.656Z,0.00
2023-05-17T02:06:54.382Z,0.00
2023-05-17T02:07:54.464Z,0.00
2023-05-17T02:08:54.271Z,0.00
2023-05-17T02:09:54.234Z,0.00
2023-05-17T02:10:54.496Z,0.00
2023-05-17T02:11:54.312Z,0.00
2023-05-17T02:12:54.302Z,0.00
2023-05-17T02:13:54.050Z,0.00
2023-05-17T02:14:54.156Z,0.00
2023-05-17T02:15:53.962Z,0.00
2023-05-17T02:16:54.125Z,0.00
2023-05-17T02:17:54.251Z,0.00
2023-05-17T02:18:54.048Z,0.00
2023-05-17T02:19:53.786Z,0.00
2023-05-17T02:20:53.949Z,0.00
2023-05-17T02:21:53.685Z,0.00
2023-05-17T02:22:53.761Z,0.00
2023-05-17T02:23:53.631Z,0.00
2023-05-17T02:24:53.775Z,0.00
2023-05-17T02:25:53.639Z,0.00
2023-05-17T02:26:53.464Z,0.00
2023-05-17T02:27:53.413Z,0.00
2023-05-17T02:28:53.500Z,0.00
2023-05-17T02:29:53.367Z,0.00
2023-05-17T02:30:53.522Z,0.00
2023-05-17T02:31:53.248Z,0.00
2023-05-17T02:32:53.305Z,0.00
2023-05-17T02:33:53.487Z,0.00
2023-05-17T02:34:53.343Z,0.00
2023-05-17T02:35:53.061Z,0.00
2023-05-17T02:36:53.156Z,0.00
2023-05-17T02:37:52.967Z,0.00
2023-05-17T02:38:52.926Z,0.00
2023-05-17T02:39:52.907Z,0.00
2023-05-17T02:40:52.966Z,0.00
2023-05-17T02:41:52.797Z,0.00
2023-05-17T02:42:52.992Z,0.00
2023-05-17T02:43:52.845Z,0.00
2023-05-17T02:44:52.839Z,0.00
2023-05-17T02:45:52.602Z,0.00
2023-05-17T02:46:52.871Z,0.00
2023-05-17T02:47:52.527Z,0.00
2023-05-17T02:48:52.640Z,0.00
2023-05-17T02:49:52.627Z,0.00
2023-05-17T02:50:52.371Z,0.00
2023-05-17T02:51:52.646Z,0.00
2023-05-17T02:52:52.283Z,0.00
2023-05-17T02:53:52.450Z,0.00
2023-05-17T02:54:52.509Z,0.00
2023-05-17T02:55:52.325Z,0.00
2023-05-17T02:56:52.104Z,0.00
2023-05-17T02:57:52.276Z,0.00
2023-05-17T02:58:52.019Z,0.00
2023-05-17T02:59:52.090Z,0.00
2023-05-17T03:00:51.973Z,0.00
2023-05-17T03:01:52.153Z,0.00
2023-05-17T03:02:51.868Z,0.00
2023-05-17T03:03:52.220Z,0.00
2023-05-17T03:04:51.769Z,0.00
2023-05-17T03:05:51.929Z,0.00
2023-05-17T03:06:51.649Z,0.00
2023-05-17T03:07:51.598Z,0.00
2023-05-17T03:08:51.560Z,0.00
2023-05-17T03:09:51.964Z,0.00
2023-05-17T03:10:51.468Z,0.00
2023-05-17T03:11:51.557Z,0.00
2023-05-17T03:12:51.380Z,0.00
2023-05-17T03:13:51.340Z,0.00
2023-05-17T03:14:51.584Z,0.00
2023-05-17T03:15:51.272Z,0.00
2023-05-17T03:16:51.397Z,0.00
2023-05-17T03:17:51.213Z,0.00
2023-05-17T03:18:51.212Z,0.00
2023-05-17T03:19:51.111Z,0.00
2023-05-17T03:20:51.217Z,0.00
2023-05-17T03:21:50.989Z,0.00
2023-05-17T03:22:51.249Z,0.00
2023-05-17T03:23:51.164Z,0.00
2023-05-17T03:24:50.833Z,0.00
2023-05-17T03:25:50.794Z,0.00
2023-05-17T03:26:51.054Z,0.00
2023-05-17T03:27:50.717Z,0.00
2023-05-17T03:28:50.866Z,0.00
2023-05-17T03:29:50.607Z,0.00
2023-05-17T03:30:50.592Z,0.00
2023-05-17T03:31:50.515Z,0.00
2023-05-17T03:32:50.978Z,0.00
2023-05-17T03:33:50.567Z,0.00
2023-05-17T03:34:50.749Z,0.00
2023-05-17T03:35:50.338Z,0.00
2023-05-17T03:36:50.571Z,0.00
2023-05-17T03:37:50.530Z,0.00
2023-05-17T03:38:50.213Z,0.00
2023-05-17T03:39:50.243Z,0.00
2023-05-17T03:40:50.137Z,0.00
2023-05-17T03:41:50.255Z,0.00
2023-05-17T03:42:50.082Z,0.00
2023-05-17T03:43:50.060Z,0.00
2023-05-17T03:44:49.926Z,0.00
2023-05-17T03:45:50.072Z,0.00
2023-05-17T03:46:49.829Z,0.00
2023-05-17T03:47:49.831Z,0.00
2023-05-17T03:48:49.893Z,5.63
2023-05-17T03:49:49.893Z,5.63
2023-05-17T03:50:49.658Z,5.63
2023-05-17T03:51:49.706Z,5.63
2023-05-17T03:52:49.974Z,5.63
2023-05-17T03:53:49.519Z,5.63
2023-05-17T03:54:49.521Z,11.25
2023-05-17T03:55:49.436Z,11.25
2023-05-17T03:56:49.537Z,11.25
2023-05-17T03:57:49.336Z,11.25
2023-05-17T03:58:49.556Z,11.25
2023-05-17T03:59:49.272Z,11.25
2023-05-17T04:00:49.377Z,16.88
2023-05-17T04:01:49.255Z,16.88
2023-05-17T04:02:49.212Z,16.88
2023-05-17T04:03:49.097Z,22.50
2023-05-17T04:04:49.419Z,22.50
2023-05-17T04:05:48.989Z,28.13
2023-05-17T04:06:48.999Z,28.13
2023-05-17T04:07:48.895Z,33.75
2023-05-17T04:08:49.023Z,33.75
2023-05-17T04:09:48.802Z,39.38
2023-05-17T04:10:48.758Z,39.38
2023-05-17T04:11:48.706Z,45.00
2023-05-17T04:12:49.049Z,45.00
2023-05-17T04:13:48.621Z,45.00
2023-05-17T04:14:48.666Z,50.63
2023-05-17T04:15:49.008Z,50.63
2023-05-17T04:16:48.481Z,56.25
2023-05-17T04:17:48.823Z,61.88
2023-05-17T04:18:48.526Z,67.50
2023-05-17T04:19:48.514Z,67.50
2023-05-17T04:20:48.300Z,73.13
2023-05-17T04:21:48.422Z,73.13
2023-05-17T04:22:48.227Z,73.13
2023-05-17T04:23:48.308Z,78.75
2023-05-17T04:24:48.384Z,78.75
2023-05-17T04:25:48.111Z,78.75
2023-05-17T04:26:48.026Z,84.38
2023-05-17T04:27:48.134Z,84.38
2023-05-17T04:28:47.947Z,84.38
2023-05-17T04:29:47.966Z,84.38
2023-05-17T04:30:47.911Z,84.38
2023-05-17T04:31:47.982Z,90.00
2023-05-17T04:32:47.852Z,90.00
2023-05-17T04:33:47.751Z,90.00
2023-05-17T04:34:47.683Z,95.63
2023-05-17T04:35:47.784Z,95.63
2023-05-17T04:36:47.573Z,95.63
2023-05-17T04:37:47.588Z,95.63
2023-05-17T04:38:47.520Z,95.63
2023-05-17T04:39:47.439Z,95.63
2023-05-17T04:40:47.610Z,101.25
2023-05-17T04:41:47.350Z,101.25
2023-05-17T04:42:47.419Z,106.88
2023-05-17T04:43:47.483Z,112.50
2023-05-17T04:44:47.439Z,118.13
2023-05-17T04:45:47.176Z,123.75
2023-05-17T04:46:47.252Z,129.38
2023-05-17T04:47:47.146Z,135.00
2023-05-17T04:48:47.419Z,140.63
2023-05-17T04:49:46.986Z,146.25
2023-05-17T04:50:47.089Z,151.88
2023-05-17T04:51:46.900Z,151.88
2023-05-17T04:52:47.088Z,157.50
2023-05-17T04:53:46.808Z,163.13
2023-05-17T04:54:47.102Z,168.75
2023-05-17T04:55:46.728Z,174.38
2023-05-17T04:56:46.912Z,180.00
2023-05-17T04:57:46.674Z,185.63
2023-05-17T04:58:46.721Z,185.63
2023-05-17T04:59:46.541Z,185.63
2023-05-17T05:00:46.546Z,185.63
2023-05-17T05:01:46.760Z,191.25
2023-05-17T05:02:46.507Z,191.25
2023-05-17T05:03:46.405Z,196.88
2023-05-17T05:04:46.386Z,202.50
2023-05-17T05:05:46.618Z,208.13
2023-05-17T05:06:46.372Z,213.75
2023-05-17T05:07:46.179Z,230.63
2023-05-17T05:08:46.141Z,236.25
2023-05-17T05:09:46.092Z,241.88
2023-05-17T05:10:46.191Z,247.50
2023-05-17T05:11:46.181Z,258.75
2023-05-17T05:12:46.001Z,264.38
2023-05-17T05:13:45.911Z,264.38
2023-05-17T05:14:45.861Z,264.38
2023-05-17T05:15:45.820Z,270.00
2023-05-17T05:16:45.827Z,275.63
2023-05-17T05:17:45.982Z,292.50
2023-05-17T05:18:45.990Z,309.38
2023-05-17T05:19:45.683Z,320.63
2023-05-17T05:20:45.583Z,331.88
2023-05-17T05:21:45.715Z,337.50
2023-05-17T05:22:45.661Z,348.75
2023-05-17T05:23:45.495Z,354.38
2023-05-17T05:24:46.499Z,360.00
2023-05-17T05:25:45.372Z,371.25
2023-05-17T05:26:45.327Z,376.88
2023-05-17T05:27:45.281Z,376.88
2023-05-17T05:28:45.309Z,376.88
2023-05-17T05:29:45.357Z,376.88
2023-05-17T05:30:45.313Z,393.75
2023-05-17T05:31:45.108Z,405.00
2023-05-17T05:32:45.140Z,410.63
2023-05-17T05:33:45.162Z,421.88
2023-05-17T05:34:45.084Z,427.50
2023-05-17T05:35:44.991Z,438.75
2023-05-17T05:36:45.259Z,450.00
2023-05-17T05:37:44.824Z,450.00
2023-05-17T05:38:44.880Z,450.00
2023-05-17T05:39:44.737Z,455.63
2023-05-17T05:40:44.772Z,472.50
2023-05-17T05:41:44.674Z,483.75
2023-05-17T05:42:44.786Z,500.63
2023-05-17T05:43:44.796Z,506.25
2023-05-17T05:44:44.513Z,523.13
2023-05-17T05:45:44.606Z,540.00
2023-05-17T05:46:44.427Z,551.25
2023-05-17T05:47:44.858Z,556.88
2023-05-17T05:48:44.379Z,556.88
2023-05-17T05:49:44.294Z,556.88
2023-05-17T05:50:44.266Z,556.88
2023-05-17T05:51:44.458Z,562.50
2023-05-17T05:52:44.155Z,562.50
2023-05-17T05:53:44.168Z,562.50
2023-05-17T05:55:05.158Z,568.13
2023-05-17T05:55:44.029Z,568.13
2023-05-17T05:56:44.097Z,573.75
2023-05-17T05:57:43.941Z,579.38
2023-05-17T05:58:45.117Z,579.38
2023-05-17T05:59:43.941Z,573.75
2023-05-17T06:03:47.198Z,585.00
2023-05-17T06:04:46.836Z,590.63
2023-05-17T06:05:50.587Z,601.88
2023-05-17T06:06:46.856Z,601.88
2023-05-17T06:07:46.681Z,596.25
2023-05-17T06:08:47.033Z,596.25
2023-05-17T06:09:46.583Z,573.75
2023-05-17T06:10:46.656Z,562.50
2023-05-17T06:11:46.489Z,551.25
2023-05-17T06:12:47.675Z,545.63
2023-05-17T06:13:46.442Z,540.00
2023-05-17T06:14:46.474Z,545.63
2023-05-17T06:15:46.320Z,551.25
2023-05-17T06:16:46.483Z,568.13
2023-05-17T06:17:46.349Z,585.00
2023-05-17T06:18:48.671Z,601.88
2023-05-17T06:19:46.149Z,601.88
2023-05-17T06:20:46.308Z,613.13
2023-05-17T06:21:46.049Z,630.00
2023-05-17T06:22:46.116Z,652.50
2023-05-17T06:23:45.949Z,669.38
2023-05-17T06:24:45.927Z,669.38
2023-05-17T06:25:45.861Z,663.75
2023-05-17T06:26:45.941Z,646.88
2023-05-17T06:27:45.830Z,630.00
2023-05-17T06:28:45.973Z,652.50
2023-05-17T06:29:45.730Z,675.00
2023-05-17T06:30:45.635Z,697.50
2023-05-17T06:31:45.612Z,703.13
2023-05-17T06:32:45.796Z,686.25
2023-05-17T06:33:45.708Z,686.25
2023-05-17T06:34:45.588Z,686.25
2023-05-17T06:35:55.566Z,680.63
2023-05-17T06:36:45.372Z,658.13
2023-05-17T06:37:45.427Z,646.88
2023-05-17T06:38:45.284Z,646.88
2023-05-17T06:39:51.647Z,669.38
2023-05-17T06:40:45.190Z,703.13
2023-05-17T06:41:45.226Z,736.88
2023-05-17T06:42:46.274Z,781.88
2023-05-17T06:43:45.061Z,793.13
2023-05-17T06:44:45.256Z,804.38
2023-05-17T06:45:45.304Z,821.25
2023-05-17T06:46:45.066Z,838.13
2023-05-17T06:47:44.937Z,832.50
2023-05-17T06:48:44.993Z,821.25
2023-05-17T06:49:44.881Z,832.50
2023-05-17T06:50:44.758Z,866.25
2023-05-17T06:51:44.897Z,883.13
2023-05-17T06:52:44.668Z,911.25
2023-05-17T06:53:44.726Z,928.13
2023-05-17T06:54:44.578Z,956.25
2023-05-17T06:55:44.709Z,978.75
2023-05-17T06:56:44.541Z,995.63
2023-05-17T06:57:44.537Z,1012.50
2023-05-17T06:58:44.409Z,1040.63
2023-05-17T06:59:44.538Z,1051.88
2023-05-17T07:00:44.310Z,1068.75
2023-05-17T07:01:44.348Z,1063.13
2023-05-17T07:02:44.497Z,1035.00
2023-05-17T07:03:44.438Z,1018.13
2023-05-17T07:04:44.187Z,990.00
2023-05-17T07:05:44.093Z,967.50
2023-05-17T07:06:44.058Z,956.25
2023-05-17T07:07:44.291Z,928.13
2023-05-17T07:08:44.002Z,894.38
2023-05-17T07:09:44.003Z,877.50
2023-05-17T07:10:44.054Z,843.75
2023-05-17T07:11:43.842Z,832.50
2023-05-17T07:12:43.787Z,810.00
2023-05-17T07:13:43.821Z,810.00
2023-05-17T07:14:43.734Z,815.63
2023-05-17T07:15:43.835Z,832.50
2023-05-17T07:16:43.901Z,855.00
2023-05-17T07:17:43.641Z,877.50
2023-05-17T07:18:44.184Z,894.38
2023-05-17T07:19:43.608Z,922.50
2023-05-17T07:20:43.669Z,950.63
2023-05-17T07:21:43.426Z,956.25
2023-05-17T07:22:43.490Z,928.13
2023-05-17T07:23:43.330Z,894.38
2023-05-17T07:24:43.392Z,900.00
2023-05-17T07:25:43.236Z,939.38
2023-05-17T07:26:43.421Z,1006.88
2023-05-17T07:27:43.416Z,1046.25
2023-05-17T07:28:43.109Z,1040.63
2023-05-17T07:29:43.067Z,1018.13
2023-05-17T07:30:43.253Z,990.00
2023-05-17T07:31:43.090Z,978.75
2023-05-17T07:32:43.097Z,984.38
2023-05-17T07:33:42.892Z,1001.25
2023-05-17T07:34:43.127Z,1023.75
2023-05-17T07:35:42.796Z,1057.50
2023-05-17T07:36:42.873Z,1096.88
2023-05-17T07:37:42.748Z,1125.00
2023-05-17T07:38:43.082Z,1147.50
2023-05-17T07:39:42.871Z,1164.38
2023-05-17T07:40:42.587Z,1209.38
2023-05-17T07:41:42.543Z,1276.88
2023-05-17T07:42:42.925Z,1355.63
2023-05-17T07:43:42.452Z,1423.13
2023-05-17T07:44:42.523Z,1456.88
2023-05-17T07:45:42.371Z,1490.63
2023-05-17T07:46:42.385Z,1490.63
2023-05-17T07:47:42.620Z,1473.75
2023-05-17T07:48:42.389Z,1395.00
2023-05-17T07:49:42.357Z,1333.13
2023-05-17T07:50:42.157Z,1299.38
2023-05-17T07:51:42.274Z,1271.25
2023-05-17T07:52:42.096Z,1271.25
2023-05-17T07:53:42.174Z,1428.75
2023-05-17T07:54:42.002Z,1608.75
2023-05-17T07:55:43.037Z,1923.75
2023-05-17T07:56:41.908Z,2143.13
2023-05-17T07:57:42.208Z,2193.75
2023-05-17T07:58:41.828Z,1333.13
2023-05-17T07:59:42.016Z,2227.50
2023-05-17T08:00:41.734Z,2368.13
2023-05-17T08:01:41.821Z,2700.00
2023-05-17T08:02:41.680Z,2885.63
2023-05-17T08:03:41.840Z,2446.88
2023-05-17T08:04:41.603Z,2778.75
2023-05-17T08:05:41.673Z,2649.38
2023-05-17T08:06:42.434Z,2413.13
2023-05-17T08:07:41.673Z,2565.00
2023-05-17T08:08:41.724Z,2649.38
2023-05-17T08:09:41.473Z,2671.88
2023-05-17T08:10:41.311Z,2086.88
2023-05-17T08:11:42.110Z,2413.13
2023-05-17T08:12:41.547Z,2728.13
2023-05-17T08:13:41.550Z,2998.13
2023-05-17T08:14:41.163Z,3763.13
2023-05-17T08:15:41.521Z,3875.63
2023-05-17T08:16:41.074Z,3993.75
2023-05-17T08:17:41.201Z,3684.38
2023-05-17T08:18:41.118Z,3234.38
2023-05-17T08:19:41.526Z,3420.00
2023-05-17T08:20:40.959Z,3262.50
2023-05-17T08:21:40.868Z,3510.00
2023-05-17T08:22:40.834Z,3071.25
2023-05-17T08:23:40.959Z,3071.25
2023-05-17T08:24:41.029Z,2874.38
2023-05-17T08:25:44.038Z,3116.25
2023-05-17T08:26:40.670Z,3397.50
2023-05-17T08:27:40.630Z,3476.25
2023-05-17T08:28:40.600Z,3504.38
2023-05-17T08:29:40.807Z,3408.75
2023-05-17T08:30:40.559Z,2446.88
2023-05-17T08:31:40.678Z,3600.00
2023-05-17T08:32:40.477Z,3774.38
2023-05-17T08:33:40.491Z,3830.63
2023-05-17T08:34:40.363Z,3915.00
2023-05-17T08:35:40.432Z,3853.13
2023-05-17T08:36:40.528Z,3892.50
2023-05-17T08:37:40.454Z,3864.38
2023-05-17T08:38:40.211Z,3903.75
2023-05-17T08:39:40.199Z,3836.25
2023-05-17T08:40:41.290Z,3645.00
2023-05-17T08:41:40.111Z,3391.88
2023-05-17T08:42:40.541Z,3262.50
2023-05-17T08:43:40.287Z,3397.50
2023-05-17T08:44:39.979Z,3712.50
2023-05-17T08:45:40.094Z,3600.00
2023-05-17T08:46:39.911Z,3768.75
2023-05-17T08:47:40.323Z,3892.50
2023-05-17T08:48:39.866Z,2891.25
2023-05-17T08:49:39.930Z,2671.88
2023-05-17T08:50:39.757Z,4303.13
2023-05-17T08:51:39.720Z,4567.50
2023-05-17T08:52:39.949Z,3825.00
2023-05-17T08:53:39.644Z,3729.38
2023-05-17T08:54:40.983Z,3082.50
2023-05-17T08:55:40.500Z,3611.25
2023-05-17T08:56:39.557Z,3375.00
2023-05-17T08:57:39.492Z,2773.13
2023-05-17T08:58:52.379Z,3020.63
2023-05-17T08:59:39.424Z,3223.13
2023-05-17T09:00:39.588Z,4123.13
2023-05-17T09:01:39.345Z,4696.88
2023-05-17T09:02:39.414Z,3706.88
2023-05-17T09:03:39.384Z,4764.38
2023-05-17T09:04:39.773Z,3465.00
2023-05-17T09:05:39.239Z,4786.88
2023-05-17T09:06:39.489Z,2857.50
2023-05-17T09:07:39.128Z,4545.00
2023-05-17T09:08:39.117Z,4578.75
2023-05-17T09:09:39.454Z,4291.88
2023-05-17T09:10:39.041Z,4460.63
2023-05-17T09:11:39.278Z,4308.75
2023-05-17T09:12:39.138Z,3931.88
2023-05-17T09:13:39.093Z,3279.38
2023-05-17T09:14:38.894Z,4252.50
2023-05-17T09:15:39.099Z,3943.13
2023-05-17T09:16:38.873Z,3819.38
2023-05-17T09:17:38.940Z,3808.13
2023-05-17T09:18:38.846Z,4089.38
2023-05-17T09:19:39.021Z,3172.50
2023-05-17T09:20:38.983Z,4460.63
2023-05-17T09:21:38.740Z,4449.38
2023-05-17T09:22:38.598Z,3330.00
2023-05-17T09:23:38.751Z,4471.88
2023-05-17T09:24:38.512Z,4702.50
2023-05-17T09:25:38.466Z,4843.13
2023-05-17T09:26:38.432Z,5265.00
2023-05-17T09:27:38.786Z,5501.25
2023-05-17T09:28:38.359Z,4455.00
2023-05-17T09:29:38.574Z,3982.50
2023-05-17T09:30:38.435Z,4072.50
2023-05-17T09:31:38.250Z,3408.75
2023-05-17T09:32:38.231Z,4561.88
2023-05-17T09:33:38.468Z,5281.88
2023-05-17T09:34:38.150Z,5473.13
2023-05-17T09:35:38.434Z,5287.50
2023-05-17T09:36:38.352Z,4882.50
2023-05-17T09:37:38.283Z,2182.50
2023-05-17T09:38:38.237Z,2947.50
2023-05-17T09:39:37.982Z,2210.63
2023-05-17T09:40:39.152Z,5107.50
2023-05-17T09:41:38.106Z,5040.00
2023-05-17T09:42:37.865Z,5203.13
2023-05-17T09:43:37.837Z,5079.38
2023-05-17T09:44:38.080Z,4798.13
2023-05-17T09:45:37.755Z,4505.63
2023-05-17T09:46:37.891Z,4516.88
2023-05-17T09:47:37.909Z,4860.00
2023-05-17T09:48:37.754Z,4308.75
2023-05-17T09:49:37.621Z,4162.50
2023-05-17T09:50:37.711Z,4640.63
2023-05-17T09:51:37.563Z,4995.00
2023-05-17T09:52:37.933Z,4606.88
2023-05-17T09:53:37.480Z,4370.63
2023-05-17T09:54:37.452Z,2373.75
2023-05-17T09:55:39.311Z,4426.88
2023-05-17T09:56:37.386Z,4798.13
2023-05-17T09:57:37.565Z,4303.13
2023-05-17T09:58:37.373Z,1743.75
2023-05-17T09:59:37.295Z,1833.75
2023-05-17T10:00:37.238Z,2565.00
2023-05-17T10:01:37.388Z,3600.00
2023-05-17T10:02:37.255Z,3684.38
2023-05-17T10:03:37.806Z,3802.50
2023-05-17T10:04:37.137Z,3712.50
2023-05-17T10:05:37.084Z,1828.13
2023-05-17T10:06:46.056Z,2458.13
2023-05-17T10:07:37.234Z,2559.38
2023-05-17T10:08:36.959Z,3015.00
2023-05-17T10:09:37.041Z,4280.63
2023-05-17T10:10:37.102Z,2925.00
2023-05-17T10:11:37.046Z,2463.75
2023-05-17T10:12:36.816Z,1811.25
2023-05-17T10:13:37.077Z,1867.50
2023-05-17T10:14:36.788Z,1614.38
2023-05-17T10:15:36.898Z,1591.88
2023-05-17T10:16:36.882Z,1659.38
2023-05-17T10:17:36.655Z,1749.38
2023-05-17T10:18:36.983Z,1783.13
2023-05-17T10:19:36.653Z,3234.38
2023-05-17T10:20:36.712Z,4494.38
2023-05-17T10:21:36.491Z,3661.88
2023-05-17T10:22:36.785Z,3673.13
2023-05-17T10:23:36.422Z,3571.88
2023-05-17T10:24:36.531Z,4083.75
2023-05-17T10:25:36.344Z,2919.38
2023-05-17T10:26:36.548Z,2278.13
2023-05-17T10:27:36.263Z,2278.13
2023-05-17T10:28:36.223Z,2131.88
2023-05-17T10:29:36.572Z,2036.25
2023-05-17T10:30:36.222Z,1974.38
2023-05-17T10:31:36.387Z,1918.13
2023-05-17T10:32:36.088Z,2019.38
2023-05-17T10:33:36.297Z,1929.38
2023-05-17T10:34:36.038Z,1580.63
2023-05-17T10:35:36.204Z,1400.63
2023-05-17T10:36:35.941Z,1501.88
2023-05-17T10:37:36.018Z,1670.63
2023-05-17T10:38:42.558Z,1676.25
2023-05-17T10:39:36.079Z,1687.50
2023-05-17T10:40:35.777Z,1895.63
2023-05-17T10:41:36.064Z,1974.38
2023-05-17T10:42:35.702Z,2137.50
2023-05-17T10:43:35.853Z,2120.63
2023-05-17T10:44:35.623Z,3538.13
2023-05-17T10:45:35.909Z,1974.38
2023-05-17T10:46:35.544Z,1721.25
2023-05-17T10:47:35.737Z,1839.38
2023-05-17T10:48:35.482Z,2497.50
2023-05-17T10:49:35.749Z,4893.75
2023-05-17T10:50:35.382Z,3813.75
2023-05-17T10:51:35.347Z,2649.38
2023-05-17T10:52:35.515Z,3628.13
2023-05-17T10:53:35.454Z,2463.75
2023-05-17T10:54:35.426Z,2115.00
2023-05-17T10:55:35.305Z,2019.38
2023-05-17T10:56:35.235Z,2216.25
2023-05-17T10:58:35.243Z,2385.00
2023-05-17T10:59:35.307Z,2565.00
2023-05-17T11:00:35.047Z,2806.88
2023-05-17T11:01:34.965Z,2986.88
2023-05-17T11:02:34.963Z,2486.25
2023-05-17T11:03:35.069Z,5411.25
2023-05-17T11:04:35.058Z,5186.25
2023-05-17T11:05:35.006Z,5107.50
2023-05-17T11:06:34.834Z,2666.25
2023-05-17T11:07:34.791Z,3650.63
2023-05-17T11:08:34.801Z,4404.38
2023-05-17T11:09:34.662Z,2823.75
2023-05-17T11:10:34.812Z,4944.38
2023-05-17T11:11:34.872Z,2413.13
2023-05-17T11:12:36.015Z,3166.88
2023-05-17T11:13:34.528Z,2520.00
2023-05-17T11:14:34.481Z,4342.50
2023-05-17T11:15:34.650Z,2160.00
2023-05-17T11:16:34.407Z,2328.75
2023-05-17T11:17:34.498Z,2250.00
2023-05-17T11:18:36.937Z,2340.00
2023-05-17T11:19:34.562Z,2908.13
2023-05-17T11:20:34.965Z,2390.63
2023-05-17T11:21:34.234Z,3774.38
2023-05-17T11:22:34.286Z,2795.63
2023-05-17T11:23:34.362Z,4291.88
2023-05-17T11:24:34.308Z,4415.63
2023-05-17T11:25:34.086Z,4488.75
2023-05-17T11:26:34.051Z,4944.38
2023-05-17T11:27:34.129Z,4820.63
2023-05-17T11:28:33.970Z,3330.00
2023-05-17T11:29:34.138Z,2626.88
2023-05-17T11:30:33.901Z,3886.88
2023-05-17T11:31:33.971Z,3825.00
2023-05-17T11:32:33.868Z,4741.88
2023-05-17T11:33:34.202Z,4376.25
2023-05-17T11:34:33.844Z,4713.75
2023-05-17T11:35:33.983Z,3425.63
2023-05-17T11:36:33.692Z,3065.63
2023-05-17T11:37:33.647Z,2857.50
2023-05-17T11:38:33.613Z,2986.88
2023-05-17T11:39:33.814Z,4168.13
2023-05-17T11:40:33.535Z,2745.00
2023-05-17T11:41:33.612Z,2773.13
2023-05-17T11:42:33.467Z,3898.13
2023-05-17T11:43:33.434Z,4899.38
2023-05-17T11:44:33.444Z,5326.88
2023-05-17T11:45:33.504Z,4089.38
2023-05-17T11:46:33.456Z,4961.25
2023-05-17T11:47:33.361Z,5259.38
2023-05-17T11:48:33.678Z,5540.63
2023-05-17T11:49:35.602Z,4815.00
2023-05-17T11:50:33.275Z,5518.13
2023-05-17T11:51:33.162Z,5771.25
2023-05-17T11:52:33.702Z,5518.13
2023-05-17T11:53:33.075Z,4803.75
2023-05-17T11:54:33.123Z,3802.50
2023-05-17T11:55:33.027Z,3099.38
2023-05-17T11:56:42.786Z,3667.50
2023-05-17T11:57:32.943Z,4477.50
2023-05-17T11:58:33.151Z,2818.13
2023-05-17T11:59:32.864Z,2368.13
2023-05-17T12:00:32.943Z,2176.88
2023-05-17T12:01:32.795Z,2160.00
2023-05-17T12:02:33.070Z,2216.25
2023-05-17T12:03:32.725Z,2340.00
2023-05-17T12:04:33.392Z,2373.75
2023-05-17T12:05:32.816Z,2323.13
2023-05-17T12:06:32.834Z,2311.88
2023-05-17T12:07:32.592Z,2356.88
2023-05-17T12:08:32.582Z,2666.25
2023-05-17T12:09:32.523Z,3262.50
2023-05-17T12:10:34.660Z,2953.13
2023-05-17T12:11:32.496Z,4573.13
2023-05-17T12:12:32.401Z,5231.25
2023-05-17T12:13:32.372Z,6153.75
2023-05-17T12:14:32.438Z,5928.75
2023-05-17T12:15:32.299Z,6103.13
2023-05-17T12:16:32.448Z,6418.13
2023-05-17T12:17:32.614Z,4854.38
2023-05-17T12:18:32.287Z,2250.00
2023-05-17T12:19:32.266Z,2255.63
2023-05-17T12:20:32.377Z,6294.38
2023-05-17T12:21:32.094Z,5940.00
2023-05-17T12:22:32.278Z,2992.50
2023-05-17T12:23:32.084Z,6665.63
2023-05-17T12:24:32.029Z,6547.50
2023-05-17T12:25:31.948Z,2649.38
2023-05-17T12:26:32.104Z,2536.88
2023-05-17T12:27:31.886Z,3346.88
2023-05-17T12:28:31.912Z,3442.50
2023-05-17T12:29:31.974Z,2508.75
2023-05-17T12:30:31.777Z,2880.00
2023-05-17T12:31:31.752Z,6041.25
2023-05-17T12:32:31.996Z,5692.50
2023-05-17T12:33:31.713Z,2255.63
2023-05-17T12:34:31.749Z,5855.63
2023-05-17T12:35:31.642Z,3048.75
2023-05-17T12:36:31.586Z,6120.00
2023-05-17T12:37:31.540Z,6305.63